Time;durP1;ratioP1;P1;durP2;ratioP2;P2;SDS_P1;SDS_P2;PMS_P1;PMS_P2;Temp;Humidity;BMP_temperature;BMP_pressure;BME280_temperature;BME280_humidity;BME280_pressure;Samples;Min_cycle;Max_cycle;Signal;HPM_P1;HPM_P2
2023/03/06 04:54:03;;;;;;;2.08;0.45;;;1.80;99.90;;;;;;6188862;23;20025;-92
2023/03/06 06:30:05;;;;;;;1.83;0.50;;;1.40;99.90;;;;;;6215883;23;20025;-91
2023/03/06 06:32:31;;;;;;;1.73;0.50;;;1.30;99.90;;;;;;6165650;23;20029;-93
2023/03/06 06:34:56;;;;;;;2.38;0.65;;;1.30;99.90;;;;;;6165480;23;20023;-93
2023/03/06 06:37:23;;;;;;;1.75;0.60;;;1.30;99.90;;;;;;6165613;23;20055;-91
2023/03/06 06:39:49;;;;;;;1.70;0.65;;;1.30;99.90;;;;;;6165526;23;20053;-93
2023/03/06 06:42:15;;;;;;;3.63;0.70;;;1.30;99.90;;;;;;6165763;23;20012;-93
2023/03/06 06:44:41;;;;;;;4.15;0.90;;;1.30;99.90;;;;;;6140806;23;20070;-93
2023/03/06 06:47:07;;;;;;;3.80;1.10;;;1.30;99.90;;;;;;6165289;23;20072;-95
2023/03/06 06:49:38;;;;;;;3.57;1.20;;;1.30;99.90;;;;;;6165455;23;20370;-95
2023/03/06 07:33:58;;;;;;;3.85;1.17;;;1.80;99.90;;;;;;6214027;23;20048;-92
2023/03/06 07:36:39;;;;;;;;;;;;;;;;;;;;;
2023/03/06 07:57:34;;;;;;;2.30;1.23;;;1.80;99.90;;;;;;6248498;23;20016;-93
2023/03/06 08:00:00;;;;;;;2.97;1.10;;;1.80;99.90;;;;;;6196756;23;20075;-93
2023/03/06 08:02:26;;;;;;;4.70;1.83;;;1.90;99.90;;;;;;6196846;23;20020;-91
2023/03/06 08:04:56;;;;;;;4.70;2.07;;;2.00;99.90;;;;;;6196850;23;20322;-94
2023/03/06 08:07:53;;;;;;;2.97;1.35;;;2.00;99.90;;;;;;6196581;23;20023;-91
2023/03/06 08:10:13;;;;;;;3.67;1.48;;;2.00;99.90;;;;;;6217865;23;20054;-92
2023/03/06 08:51:30;;;;;;;1.73;0.70;;;2.80;99.90;;;;;;6188303;23;20025;-89
2023/03/06 08:53:57;;;;;;;2.33;0.80;;;2.80;99.90;;;;;;6167752;23;20042;-89
2023/03/06 08:56:26;;;;;;;2.85;0.90;;;2.90;99.90;;;;;;6167486;23;20013;-88
2023/03/06 08:58:53;;;;;;;3.67;1.02;;;3.00;99.90;;;;;;6167470;23;20017;-88
2023/03/06 09:01:25;;;;;;;2.70;0.75;;;3.00;99.90;;;;;;6166985;23;20021;-90
2023/03/06 09:03:53;;;;;;;3.92;1.05;;;3.10;99.90;;;;;;6167034;23;20024;-89
2023/03/06 09:06:20;;;;;;;2.78;0.73;;;3.10;99.90;;;;;;6166357;23;20024;-89
2023/03/06 09:08:45;;;;;;;2.50;0.75;;;3.20;99.90;;;;;;6167287;23;20052;-90
2023/03/06 09:11:13;;;;;;;2.60;0.60;;;3.20;99.90;;;;;;6168137;23;20024;-90
2023/03/06 09:13:40;;;;;;;0.93;0.40;;;3.30;99.90;;;;;;6167956;23;20013;-89
2023/03/06 09:16:06;;;;;;;1.13;0.50;;;3.30;99.90;;;;;;6167834;23;20020;-90
2023/03/06 09:18:32;;;;;;;2.72;0.60;;;3.40;99.90;;;;;;6168079;23;20023;-90
2023/03/06 09:20:58;;;;;;;1.38;0.50;;;3.50;99.90;;;;;;6168203;23;20024;-94
2023/03/06 09:23:23;;;;;;;2.10;0.53;;;3.60;99.90;;;;;;6167940;23;20087;-91
2023/03/06 09:25:54;;;;;;;1.83;0.73;;;3.60;99.90;;;;;;6167335;23;20099;-90
2023/03/06 09:28:20;;;;;;;2.40;0.80;;;3.60;99.90;;;;;;6168410;23;20024;-90
2023/03/06 09:30:46;;;;;;;2.73;0.80;;;3.70;99.90;;;;;;6167639;23;20016;-90
2023/03/06 09:33:11;;;;;;;1.50;0.70;;;3.80;99.90;;;;;;6166766;23;20013;-90
2023/03/06 09:35:49;;;;;;;2.53;1.00;;;3.80;99.90;;;;;;6142283;23;20518;-89
2023/03/06 09:38:16;;;;;;;2.85;0.90;;;3.90;99.90;;;;;;6166950;23;20036;-89
2023/03/06 09:40:56;;;;;;;1.85;0.70;;;3.90;99.90;;;;;;6166730;23;20055;-90
2023/03/06 09:43:36;;;;;;;1.45;0.40;;;3.90;99.90;;;;;;6216887;23;20017;-92
2023/03/06 09:46:28;;;;;;;1.80;0.50;;;4.00;99.90;;;;;;6169164;23;20100;-92
2023/03/06 09:49:29;;;;;;;0.85;0.40;;;4.00;99.90;;;;;;6172584;23;20009;-95
2023/03/06 09:52:21;;;;;;;1.23;0.40;;;4.10;99.90;;;;;;6209635;23;20023;-89
2023/03/06 09:55:10;;;;;;;1.52;0.50;;;4.10;99.90;;;;;;6205883;23;20017;-92
2023/03/06 09:58:11;;;;;;;0.75;0.30;;;4.10;99.90;;;;;;6173599;23;20016;-95
2023/03/06 10:01:01;;;;;;;0.88;0.20;;;4.20;99.90;;;;;;6134352;23;20020;-87
2023/03/06 10:03:44;;;;;;;1.58;0.30;;;4.20;99.90;;;;;;6167699;23;20125;-91
2023/03/06 10:06:22;;;;;;;1.10;0.30;;;4.30;99.90;;;;;;6173095;23;20020;-88
2023/03/06 10:08:54;;;;;;;0.52;0.20;;;4.30;99.90;;;;;;6225714;23;20020;-90
2023/03/06 10:11:39;;;;;;;0.52;0.13;;;4.40;99.90;;;;;;6202186;23;20021;-89
2023/03/06 10:14:22;;;;;;;0.43;0.17;;;4.50;99.90;;;;;;6222425;23;20043;-89
2023/03/06 10:16:48;;;;;;;1.13;0.20;;;4.60;99.90;;;;;;6227001;23;20068;-95
2023/03/06 10:19:17;;;;;;;2.80;0.30;;;4.60;99.90;;;;;;6148837;23;20021;-89
2023/03/06 10:21:51;;;;;;;1.25;0.13;;;4.70;99.90;;;;;;6172174;23;20024;-89
2023/03/06 10:24:32;;;;;;;1.38;0.20;;;4.70;99.90;;;;;;6173118;23;20013;-90
2023/03/06 10:27:22;;;;;;;0.50;0.13;;;4.80;99.90;;;;;;6225630;23;20050;-89
2023/03/06 10:30:00;;;;;;;2.47;0.30;;;4.90;99.90;;;;;;6174650;23;20016;-90
2023/03/06 10:32:57;;;;;;;0.17;0.10;;;4.90;99.90;;;;;;6207503;23;20011;-88
2023/03/06 10:35:41;;;;;;;0.75;0.20;;;5.00;99.90;;;;;;6175088;23;20044;-88
2023/03/06 10:38:25;;;;;;;1.33;0.20;;;5.10;99.90;;;;;;6170462;23;20008;-89
2023/03/06 10:41:04;;;;;;;1.85;0.20;;;5.20;99.90;;;;;;6172875;23;20055;-90
2023/03/06 10:43:37;;;;;;;1.55;0.40;;;5.30;99.90;;;;;;6199253;23;20021;-87
2023/03/06 10:46:04;;;;;;;2.15;0.20;;;5.40;99.90;;;;;;6168978;23;20016;-94
2023/03/06 10:48:40;;;;;;;0.25;0.10;;;5.50;99.90;;;;;;6166406;23;20064;-94
2023/03/06 10:51:19;;;;;;;1.48;0.20;;;5.50;99.90;;;;;;6142402;23;20454;-92
2023/03/06 10:53:59;;;;;;;0.98;0.08;;;5.40;99.90;;;;;;6189619;23;20066;-90
2023/03/06 10:56:27;;;;;;;0.50;0.13;;;5.40;99.90;;;;;;6165320;23;20019;-88
2023/03/06 10:59:24;;;;;;;1.17;0.20;;;5.40;99.90;;;;;;6165469;23;20021;-91
2023/03/06 11:01:56;;;;;;;1.02;0.25;;;5.40;99.90;;;;;;6158459;23;20016;-92
2023/03/06 11:04:27;;;;;;;1.92;0.20;;;5.40;99.90;;;;;;6165069;23;20020;-94
2023/03/06 11:07:17;;;;;;;0.03;0.00;;;5.40;99.90;;;;;;6215111;23;20052;-94
2023/03/06 11:09:55;;;;;;;0.50;0.10;;;5.50;99.90;;;;;;6164673;23;20042;-94
2023/03/06 11:12:24;;;;;;;1.50;0.10;;;5.60;99.90;;;;;;6216390;23;20013;-89
2023/03/06 11:15:23;;;;;;;0.30;0.15;;;5.80;99.90;;;;;;6214876;23;20441;-92
2023/03/06 11:18:07;;;;;;;0.00;0.00;;;5.90;99.90;;;;;;6118123;23;20389;-88
2023/03/06 11:20:41;;;;;;;0.40;0.10;;;5.80;99.90;;;;;;6190076;23;20636;-89
2023/03/06 11:23:17;;;;;;;0.55;0.20;;;5.90;99.90;;;;;;6165502;23;20012;-87
2023/03/06 11:25:55;;;;;;;1.70;0.20;;;6.00;99.90;;;;;;6166084;23;20023;-87
2023/03/06 11:28:30;;;;;;;1.52;0.15;;;6.00;99.90;;;;;;6192001;23;20024;-88
2023/03/06 11:31:40;;;;;;;0.10;0.10;;;5.90;99.90;;;;;;6167604;23;20090;-87
2023/03/06 11:34:18;;;;;;;1.05;0.13;;;5.80;99.90;;;;;;6104414;23;20097;-86
2023/03/06 11:36:52;;;;;;;0.30;0.10;;;5.80;99.90;;;;;;6081393;23;20029;-86
2023/03/06 11:39:37;;;;;;;3.30;0.28;;;5.60;99.90;;;;;;6137208;23;20099;-86
2023/03/06 11:42:26;;;;;;;0.52;0.17;;;5.60;99.90;;;;;;6166245;23;20013;-87
2023/03/06 11:45:12;;;;;;;1.33;0.30;;;5.50;99.90;;;;;;6169056;23;20095;-87
2023/03/06 11:48:01;;;;;;;0.03;0.03;;;5.40;99.90;;;;;;6167629;23;20025;-87
2023/03/06 11:50:35;;;;;;;0.82;0.15;;;5.40;99.90;;;;;;6168890;23;20013;-87
2023/03/06 11:53:09;;;;;;;0.40;0.10;;;5.30;99.90;;;;;;6221399;23;20025;-87
2023/03/06 11:56:15;;;;;;;0.80;0.20;;;5.30;99.90;;;;;;6222514;23;20021;-89
2023/03/06 11:58:41;;;;;;;0.35;0.30;;;5.30;99.90;;;;;;6196318;23;20024;-87
2023/03/06 12:01:31;;;;;;;0.83;0.10;;;5.30;99.90;;;;;;6217665;23;20017;-87
2023/03/06 12:04:22;;;;;;;0.85;0.20;;;5.20;99.90;;;;;;6168430;23;20020;-87
2023/03/06 12:07:19;;;;;;;0.75;0.22;;;5.20;99.90;;;;;;6193284;23;20110;-88
2023/03/06 12:10:04;;;;;;;0.40;0.13;;;5.20;99.90;;;;;;6173028;23;20031;-87
2023/03/06 12:13:00;;;;;;;0.50;0.10;;;5.20;99.90;;;;;;6191749;23;20454;-87
2023/03/06 12:15:54;;;;;;;1.17;0.25;;;5.20;99.90;;;;;;6195797;23;20442;-87
2023/03/06 12:18:29;;;;;;;0.55;0.20;;;5.20;99.90;;;;;;6168239;23;20028;-86
2023/03/06 12:21:16;;;;;;;0.63;0.10;;;5.20;99.90;;;;;;6168067;23;20092;-87
2023/03/06 12:24:30;;;;;;;0.75;0.20;;;5.30;99.90;;;;;;6197159;23;20024;-88
2023/03/06 12:27:31;;;;;;;0.80;0.15;;;5.40;99.90;;;;;;6156034;23;20017;-88
2023/03/06 12:30:35;;;;;;;0.00;0.00;;;5.60;99.90;;;;;;6135571;23;20094;-87
2023/03/06 12:33:25;;;;;;;0.30;0.10;;;5.80;99.90;;;;;;6192455;23;20013;-87
2023/03/06 12:36:18;;;;;;;0.55;0.13;;;6.10;99.90;;;;;;6192542;23;20047;-88
2023/03/06 12:46:53;;;;;;;1.17;0.40;;;6.50;99.90;;;;;;6225478;23;20047;-85
2023/03/06 12:49:37;;;;;;;0.55;0.10;;;6.50;99.90;;;;;;6201779;23;20024;-87
2023/03/06 12:52:08;;;;;;;1.02;0.30;;;6.50;99.90;;;;;;6211392;23;20020;-87
2023/03/06 12:54:40;;;;;;;0.52;0.20;;;6.50;99.90;;;;;;6234467;23;20016;-87
2023/03/06 12:57:24;;;;;;;0.82;0.22;;;6.50;99.90;;;;;;6208630;23;20035;-88
2023/03/06 12:59:52;;;;;;;0.95;0.20;;;6.50;99.90;;;;;;6231509;23;20018;-95
2023/03/06 13:02:34;;;;;;;0.40;0.20;;;6.50;99.90;;;;;;6230301;23;20414;-88
2023/03/06 13:05:27;;;;;;;0.73;0.20;;;6.50;99.90;;;;;;6206620;23;20444;-90
2023/03/06 13:07:54;;;;;;;1.55;0.40;;;6.40;99.90;;;;;;6228304;23;20020;-91
2023/03/06 13:10:46;;;;;;;1.55;0.22;;;6.30;99.90;;;;;;6209352;23;20087;-86
2023/03/06 13:13:35;;;;;;;0.60;0.20;;;6.20;99.90;;;;;;6208644;23;20003;-87
2023/03/06 13:16:34;;;;;;;1.15;0.20;;;6.20;99.90;;;;;;6209559;23;20066;-86
2023/03/06 13:19:04;;;;;;;0.80;0.20;;;6.10;99.90;;;;;;6207782;23;20007;-86
2023/03/06 13:21:55;;;;;;;1.02;0.13;;;6.10;99.90;;;;;;6205991;23;20342;-92
2023/03/06 13:34:48;;;;;;;0.85;0.20;;;5.90;99.90;;;;;;6200737;23;20025;-88
2023/03/06 13:37:23;;;;;;;0.20;0.10;;;5.90;99.90;;;;;;6197031;23;20521;-87
2023/03/06 13:40:25;;;;;;;0.70;0.20;;;5.90;99.90;;;;;;6198587;23;20017;-88
2023/03/06 13:42:50;;;;;;;0.40;0.17;;;5.90;99.90;;;;;;6145496;23;20060;-87
2023/03/06 13:45:41;;;;;;;1.33;0.20;;;5.90;99.90;;;;;;6197289;23;20017;-89
2023/03/06 13:53:43;;;;;;;1.58;0.22;;;6.00;99.90;;;;;;6200757;23;20011;-89
2023/03/06 13:56:27;;;;;;;0.55;0.17;;;6.00;99.90;;;;;;6151491;23;20029;-88
2023/03/06 13:59:09;;;;;;;0.85;0.32;;;6.00;99.90;;;;;;6174374;23;20096;-86
2023/03/06 14:07:08;;;;;;;0.40;0.10;;;6.00;99.90;;;;;;6171107;23;20025;-86
2023/03/06 14:10:01;;;;;;;0.40;0.20;;;6.00;99.90;;;;;;6176750;23;20021;-85
2023/03/06 14:12:48;;;;;;;1.55;0.25;;;6.00;99.90;;;;;;6175210;23;20033;-86
2023/03/06 14:15:28;;;;;;;0.63;0.20;;;5.90;99.90;;;;;;6152019;23;20021;-89
2023/03/06 14:18:12;;;;;;;1.27;0.20;;;5.90;99.90;;;;;;6146360;23;20065;-88
2023/03/06 14:20:44;;;;;;;1.27;0.20;;;5.90;99.90;;;;;;6151635;23;20021;-88
2023/03/06 14:23:20;;;;;;;0.30;0.20;;;5.90;99.90;;;;;;6153309;23;20027;-88
2023/03/06 14:26:09;;;;;;;0.40;0.20;;;5.90;99.90;;;;;;6149693;23;20020;-88
2023/03/06 14:31:20;;;;;;;0.52;0.25;;;5.80;99.90;;;;;;6230562;23;20021;-88
2023/03/06 14:34:14;;;;;;;1.75;0.55;;;5.80;99.90;;;;;;6181597;22;20024;-90
2023/03/06 14:39:55;;;;;;;0.43;0.15;;;5.90;99.90;;;;;;6232801;22;20031;-88
2023/03/06 14:45:16;;;;;;;1.50;0.30;;;5.80;99.90;;;;;;6228990;23;20021;-89
2023/03/06 14:47:52;;;;;;;0.25;0.20;;;5.80;99.90;;;;;;6175576;23;20086;-92
2023/03/06 14:50:31;;;;;;;0.20;0.10;;;5.80;99.90;;;;;;6154062;23;20013;-88
2023/03/06 14:55:34;;;;;;;0.98;0.30;;;5.80;99.90;;;;;;6196552;23;20070;-88
2023/03/06 14:58:33;;;;;;;2.33;0.30;;;5.80;99.90;;;;;;6167736;23;20477;-90
2023/03/06 15:01:07;;;;;;;1.27;0.40;;;5.80;99.90;;;;;;6147011;23;20017;-89
2023/03/06 15:03:47;;;;;;;2.50;0.47;;;5.80;99.90;;;;;;6150382;23;20017;-87
2023/03/06 15:21:51;;;;;;;1.23;0.22;;;5.70;99.90;;;;;;6201397;23;20312;-90
2023/03/06 15:27:17;;;;;;;0.55;0.28;;;5.70;99.90;;;;;;6226293;23;20029;-88
2023/03/06 15:32:34;;;;;;;1.33;0.57;;;5.60;99.90;;;;;;6196095;23;20024;-88
2023/03/06 15:37:37;;;;;;;0.80;0.30;;;5.60;99.90;;;;;;6197384;22;20021;-90
2023/03/06 15:40:16;;;;;;;0.85;0.20;;;5.60;99.90;;;;;;6177609;23;20060;-88
2023/03/06 15:42:42;;;;;;;1.42;0.40;;;5.50;99.90;;;;;;6146892;23;20001;-87
2023/03/06 15:45:22;;;;;;;2.63;0.30;;;5.50;99.90;;;;;;6142993;23;20032;-89
2023/03/06 15:47:49;;;;;;;0.80;0.30;;;5.50;99.90;;;;;;6148774;23;20021;-87
2023/03/06 15:50:21;;;;;;;0.80;0.20;;;5.50;99.90;;;;;;6145809;23;20037;-87
2023/03/06 15:52:50;;;;;;;0.95;0.40;;;5.50;99.90;;;;;;6164611;23;20343;-89
2023/03/06 15:57:57;;;;;;;1.20;0.35;;;5.40;99.90;;;;;;6190158;23;20032;-88
2023/03/06 16:00:27;;;;;;;9.63;3.85;;;5.50;99.90;;;;;;6145381;23;20021;-89
2023/03/06 16:08:04;;;;;;;11.68;7.30;;;5.40;99.90;;;;;;6140637;23;20021;-89
2023/03/06 16:10:34;;;;;;;3.17;1.63;;;5.40;99.90;;;;;;6163376;23;20096;-90
2023/03/06 16:13:05;;;;;;;3.45;1.92;;;5.40;99.90;;;;;;6143121;23;20017;-88
2023/03/06 16:15:38;;;;;;;3.80;1.83;;;5.40;99.90;;;;;;6139915;23;20022;-87
2023/03/06 16:18:05;;;;;;;3.30;1.90;;;5.40;99.90;;;;;;6141756;23;20024;-88
2023/03/06 16:20:49;;;;;;;3.53;1.17;;;5.40;99.90;;;;;;6145266;23;20021;-87
2023/03/06 16:23:18;;;;;;;7.72;4.03;;;5.40;99.90;;;;;;6139677;23;20022;-87
2023/03/06 16:25:47;;;;;;;77.10;31.30;;;5.40;99.90;;;;;;6182481;23;20032;-89
2023/03/06 16:28:15;;;;;;;76.82;35.33;;;5.40;99.90;;;;;;6196036;23;20028;-87
2023/03/06 16:30:42;;;;;;;119.32;39.75;;;5.40;99.90;;;;;;6198118;23;20019;-87
2023/03/06 16:33:12;;;;;;;15.60;7.45;;;5.40;99.90;;;;;;6175785;23;20074;-89
2023/03/06 16:35:40;;;;;;;5.57;2.40;;;5.30;99.90;;;;;;6175455;23;20013;-87
2023/03/06 16:38:06;;;;;;;141.38;36.33;;;5.30;99.90;;;;;;6196526;23;20346;-88
2023/03/06 16:40:39;;;;;;;13.18;3.45;;;5.30;99.90;;;;;;6172455;23;20016;-88
2023/03/06 16:43:09;;;;;;;12.85;4.43;;;5.20;99.90;;;;;;6167649;23;20056;-90
2023/03/06 16:45:40;;;;;;;37.30;17.85;;;5.20;99.90;;;;;;6167982;23;20444;-90
2023/03/06 16:48:12;;;;;;;23.20;18.52;;;5.10;99.90;;;;;;6170186;23;20059;-91
2023/03/06 16:50:40;;;;;;;2.58;1.10;;;5.00;99.90;;;;;;6174678;23;20055;-90
2023/03/06 16:53:06;;;;;;;2.53;1.10;;;4.80;99.90;;;;;;6150455;23;20086;-90
2023/03/06 16:55:35;;;;;;;5.63;3.13;;;4.60;99.90;;;;;;6171452;23;20095;-91
2023/03/06 16:58:01;;;;;;;4.25;2.55;;;4.40;99.90;;;;;;6148793;23;20021;-90
2023/03/06 17:00:30;;;;;;;7.80;5.20;;;4.30;99.90;;;;;;6145356;23;20024;-90
2023/03/06 17:02:56;;;;;;;5.50;2.78;;;4.20;99.90;;;;;;6172075;23;20023;-90
2023/03/06 17:05:22;;;;;;;4.07;1.80;;;4.20;99.90;;;;;;6169627;23;20068;-93
2023/03/06 17:07:49;;;;;;;3.90;1.70;;;4.00;99.90;;;;;;6147535;23;20027;-91
2023/03/06 17:10:25;;;;;;;;;;;4.00;99.90;;;;;;6173287;23;20128;-91
2023/03/06 17:13:09;;;;;;;;;;;4.00;99.90;;;;;;6168018;23;19941;-92
2023/03/06 17:16:21;;;;;;;3.67;1.35;;;3.90;99.90;;;;;;6169456;23;19927;-90
2023/03/06 17:18:47;;;;;;;4.32;1.80;;;3.80;99.90;;;;;;6168454;23;20063;-92
2023/03/06 17:21:17;;;;;;;4.07;1.57;;;3.80;99.90;;;;;;6169296;23;20028;-92
2023/03/06 17:23:44;;;;;;;3.85;1.30;;;3.70;99.90;;;;;;6146821;23;20048;-91
2023/03/06 17:28:55;;;;;;;3.90;1.30;;;3.70;99.90;;;;;;6216278;22;19927;-87
2023/03/06 17:31:23;;;;;;;4.43;1.58;;;3.60;99.90;;;;;;6141388;23;20059;-89
2023/03/06 17:33:50;;;;;;;3.88;1.50;;;3.60;99.90;;;;;;6191644;23;20016;-90
2023/03/06 17:36:18;;;;;;;3.50;1.55;;;3.60;99.90;;;;;;6167717;23;20017;-92
2023/03/06 17:38:49;;;;;;;5.07;1.88;;;3.60;99.90;;;;;;6167431;23;20016;-91
2023/03/06 17:41:26;;;;;;;5.15;2.00;;;3.60;99.90;;;;;;6148041;23;20446;-92
2023/03/06 17:44:00;;;;;;;5.43;1.60;;;3.60;99.90;;;;;;6146936;23;20398;-92
2023/03/06 17:46:26;;;;;;;4.93;2.13;;;3.60;99.90;;;;;;6173013;23;20052;-90
2023/03/06 17:48:53;;;;;;;5.45;1.90;;;3.60;99.90;;;;;;6170775;23;20017;-90
2023/03/06 17:51:18;;;;;;;5.40;1.88;;;3.60;99.90;;;;;;6170927;23;20342;-94
2023/03/06 17:53:45;;;;;;;4.17;1.83;;;3.50;99.90;;;;;;6171888;23;20068;-89
2023/03/06 17:56:12;;;;;;;;;;;3.50;99.90;;;;;;6170099;23;20051;-90
2023/03/06 17:58:40;;;;;;;4.93;2.03;;;3.50;99.90;;;;;;6168578;23;19970;-92
2023/03/06 18:01:21;;;;;;;4.85;1.90;;;3.50;99.90;;;;;;6171175;23;20013;-92
2023/03/06 18:03:48;;;;;;;7.30;3.47;;;3.50;99.90;;;;;;6167223;23;20021;-90
2023/03/06 18:06:32;;;;;;;4.32;1.67;;;3.50;99.90;;;;;;6166848;23;20043;-92
2023/03/06 18:09:09;;;;;;;4.40;1.80;;;3.40;99.90;;;;;;6119901;23;20013;-91
2023/03/06 18:11:36;;;;;;;5.70;2.10;;;3.40;99.90;;;;;;6167253;23;20410;-94
2023/03/06 18:14:04;;;;;;;5.90;2.50;;;3.40;99.90;;;;;;6144774;23;20105;-92
2023/03/06 18:16:30;;;;;;;5.85;2.30;;;3.40;99.90;;;;;;6166693;23;20019;-92
2023/03/06 18:18:56;;;;;;;6.18;2.28;;;3.40;99.90;;;;;;6166652;23;20415;-90
2023/03/06 18:21:26;;;;;;;6.00;2.00;;;3.40;99.90;;;;;;6172533;23;20070;-92
2023/03/06 18:24:15;;;;;;;5.65;2.28;;;3.30;99.90;;;;;;6170421;23;20446;-90
2023/03/06 18:41:44;;;;;;;8.82;5.05;;;3.40;99.90;;;;;;6220771;23;20068;-94
2023/03/06 18:44:15;;;;;;;6.90;3.67;;;3.40;99.90;;;;;;6167040;23;20020;-94
2023/03/06 18:46:41;;;;;;;10.52;6.40;;;3.30;99.90;;;;;;6193922;23;20028;-92
2023/03/06 18:49:12;;;;;;;14.77;7.57;;;3.40;99.90;;;;;;6173770;23;20023;-91
2023/03/06 18:51:54;;;;;;;15.27;9.40;;;3.30;99.90;;;;;;6168228;23;20252;-90
2023/03/06 18:56:58;;;;;;;10.15;5.28;;;3.30;99.90;;;;;;6223091;23;20021;-93
2023/03/06 19:34:33;;;;;;;7.80;3.45;;;3.10;99.90;;;;;;6221553;23;20020;-93
2023/03/06 19:37:04;;;;;;;9.82;4.18;;;3.10;99.90;;;;;;6146538;23;20008;-91
2023/03/06 20:17:56;;;;;;;10.13;4.47;;;3.20;99.90;;;;;;6188705;23;20382;-91
2023/03/06 20:33:30;;;;;;;11.35;5.03;;;3.20;99.90;;;;;;6221533;23;20032;-91
2023/03/06 20:36:03;;;;;;;14.27;6.53;;;3.20;99.90;;;;;;6172829;23;20056;-91
2023/03/06 20:38:29;;;;;;;13.40;5.93;;;3.20;99.90;;;;;;6174247;23;20652;-92
